Time;durP1;ratioP1;P1;durP2;ratioP2;P2;SDS_P1;SDS_P2;PMS_P1;PMS_P2;Temp;Humidity;BMP_temperature;BMP_pressure;BME280_temperature;BME280_humidity;BME280_pressure;Samples;Min_cycle;Max_cycle;Signal;HPM_P1;HPM_P2
2021/12/20 00:02:04;;;;;;;5.67;2.10;;;;;;;-0.53;100.00;97682.70;1721581;81;20939;-80
2021/12/20 00:04:33;;;;;;;4.65;1.90;;;;;;;-0.55;100.00;97686.23;1743870;81;20947;-80
2021/12/20 00:07:05;;;;;;;5.65;2.22;;;;;;;-0.59;100.00;97685.23;1745017;81;20927;-80
2021/12/20 00:09:33;;;;;;;6.15;2.58;;;;;;;-0.63;100.00;97686.36;1718636;81;20966;-81
2021/12/20 00:12:09;;;;;;;7.10;2.55;;;;;;;-0.65;100.00;97691.78;1740780;81;21149;-81
2021/12/20 00:14:41;;;;;;;5.95;2.45;;;;;;;-0.71;100.00;97691.03;1741411;81;20947;-81
2021/12/20 00:17:11;;;;;;;6.25;2.00;;;;;;;-0.74;100.00;97695.11;1745503;81;20959;-79
2021/12/20 00:19:40;;;;;;;3.15;1.62;;;;;;;-0.77;100.00;97696.23;1746719;81;20896;-79
2021/12/20 00:22:12;;;;;;;6.03;1.70;;;;;;;-0.78;100.00;97700.01;1745232;81;20991;-79
2021/12/20 00:24:43;;;;;;;4.92;1.80;;;;;;;-0.80;100.00;97702.19;1753893;81;20961;-79
2021/12/20 00:27:19;;;;;;;7.03;2.02;;;;;;;-0.81;100.00;97703.27;1719813;81;21470;-79
2021/12/20 00:29:55;;;;;;;3.87;1.80;;;;;;;-0.84;100.00;97707.34;1746940;81;21125;-81
2021/12/20 00:32:30;;;;;;;5.20;1.75;;;;;;;-0.84;100.00;97702.50;1747709;81;20931;-80
2021/12/20 00:35:04;;;;;;;5.50;2.15;;;;;;;-0.83;100.00;97700.87;1745750;81;20904;-79
2021/12/20 00:40:26;;;;;;;7.28;1.70;;;;;;;-0.87;100.00;97713.85;1751801;81;20978;-82
2021/12/20 00:43:00;;;;;;;4.28;1.80;;;;;;;-0.88;100.00;97714.94;1750389;81;20967;-82
2021/12/20 00:45:38;;;;;;;4.05;1.85;;;;;;;-0.91;100.00;97717.66;1719076;81;21145;-81
2021/12/20 00:48:08;;;;;;;3.50;1.52;;;;;;;-0.93;100.00;97721.18;1740147;81;20868;-78
2021/12/20 00:50:41;;;;;;;5.53;1.87;;;;;;;-0.94;100.00;97726.31;1718829;81;20904;-79
2021/12/20 00:53:19;;;;;;;3.90;1.20;;;;;;;-0.93;100.00;97721.72;1743191;81;21015;-79
2021/12/20 00:55:49;;;;;;;4.12;1.25;;;;;;;-0.93;100.00;97720.38;1748652;81;21414;-80
2021/12/20 00:58:21;;;;;;;6.80;1.60;;;;;;;-0.92;100.00;97729.52;1721634;81;21041;-79
2021/12/20 01:00:58;;;;;;;3.27;1.27;;;;;;;-0.88;100.00;97730.56;1744780;81;21001;-79
2021/12/20 01:03:33;;;;;;;4.33;1.10;;;;;;;-0.86;100.00;97722.99;1749180;81;20946;-80
2021/12/20 01:06:11;;;;;;;3.40;1.25;;;;;;;-0.83;100.00;97729.16;1716816;82;21084;-79
2021/12/20 01:08:47;;;;;;;4.40;1.30;;;;;;;-0.82;100.00;97724.03;1717866;82;21569;-80
2021/12/20 01:11:21;;;;;;;3.52;1.25;;;;;;;-0.78;100.00;97730.45;1734271;81;21672;-80
2021/12/20 01:13:50;;;;;;;6.78;1.77;;;;;;;-0.73;100.00;97728.24;1715817;82;20971;-80
2021/12/20 01:16:29;;;;;;;4.45;1.70;;;;;;;-0.73;100.00;97728.24;1749038;81;21454;-80
2021/12/20 01:18:57;;;;;;;4.28;1.50;;;;;;;-0.72;100.00;97736.05;1743424;81;20947;-80
2021/12/20 01:21:30;;;;;;;4.05;1.40;;;;;;;-0.69;100.00;97731.97;1719771;81;20903;-80
2021/12/20 01:24:01;;;;;;;3.83;1.00;;;;;;;-0.70;100.00;97728.47;1748937;81;22199;-81
2021/12/20 01:26:34;;;;;;;5.03;1.20;;;;;;;-0.68;100.00;97734.38;1742901;81;21116;-80
2021/12/20 01:29:01;;;;;;;4.90;1.10;;;;;;;-0.65;100.00;97737.05;1749569;81;21595;-79
2021/12/20 01:31:29;;;;;;;4.00;1.00;;;;;;;-0.63;100.00;97735.41;1753753;81;20951;-79
2021/12/20 01:34:01;;;;;;;4.05;1.40;;;;;;;-0.62;100.00;97737.02;1740760;81;21003;-81
2021/12/20 01:36:29;;;;;;;4.00;1.60;;;;;;;-0.64;100.00;97732.46;1742599;81;21139;-81
2021/12/20 01:38:59;;;;;;;5.30;1.70;;;;;;;-0.62;100.00;97734.33;1749166;81;20863;-80
2021/12/20 01:41:29;;;;;;;4.85;1.65;;;;;;;-0.60;100.00;97740.23;1746483;81;20982;-80
2021/12/20 01:44:04;;;;;;;10.55;2.30;;;;;;;-0.63;100.00;97737.56;1747353;81;20907;-80
2021/12/20 01:46:38;;;;;;;4.60;1.77;;;;;;;-0.61;100.00;97729.19;1749799;81;20946;-80
2021/12/20 01:49:10;;;;;;;5.90;2.10;;;;;;;-0.60;100.00;97736.19;1748334;81;21758;-80
2021/12/20 01:52:01;;;;;;;5.58;1.98;;;;;;;-0.60;100.00;97729.45;1720776;82;20995;-80
2021/12/20 01:54:17;;;;;;;9.25;2.30;;;;;;;-0.61;100.00;97731.34;1741962;81;21113;-79
2021/12/20 01:56:46;;;;;;;6.47;2.10;;;;;;;-0.62;100.00;97724.89;1743848;81;21042;-78
2021/12/20 01:59:17;;;;;;;8.33;1.82;;;;;;;-0.61;100.00;97736.73;1719993;81;20868;-79
2021/12/20 02:01:51;;;;;;;4.30;2.00;;;;;;;-0.62;100.00;97733.78;1746882;81;21509;-78
2021/12/20 02:04:24;;;;;;;7.72;2.05;;;;;;;-0.62;100.00;97739.72;1748245;81;21142;-77
2021/12/20 02:06:55;;;;;;;8.73;2.35;;;;;;;-0.63;100.00;97740.26;1748815;81;20982;-76
2021/12/20 02:09:23;;;;;;;;;;;;;;;-0.61;100.00;97731.89;1721613;81;20944;-77
2021/12/20 02:11:54;;;;;;;2.90;1.15;;;;;;;-0.60;100.00;97737.53;1748703;81;20154;-77
2021/12/20 02:14:26;;;;;;;3.83;1.10;;;;;;;-0.61;100.00;97738.63;1744758;81;21105;-81
2021/12/20 02:16:59;;;;;;;4.40;1.60;;;;;;;-0.61;100.00;97738.63;1742850;81;21501;-80
2021/12/20 02:19:30;;;;;;;2.83;1.22;;;;;;;-0.61;100.00;97734.58;1745448;81;20987;-81
2021/12/20 02:22:03;;;;;;;3.02;1.25;;;;;;;-0.62;100.00;97733.78;1748029;81;21015;-78
2021/12/20 02:24:38;;;;;;;2.60;1.10;;;;;;;-0.64;100.00;97724.38;1746090;81;21067;-77
2021/12/20 02:27:07;;;;;;;5.17;1.02;;;;;;;-0.64;100.00;97728.42;1697557;81;21422;-77
2021/12/20 02:29:58;;;;;;;2.67;1.52;;;;;;;-0.65;100.00;97734.90;1751341;81;21442;-77
2021/12/20 02:37:52;;;;;;;2.17;1.17;;;;;;;-0.66;100.00;97740.83;1742203;81;21046;-81
2021/12/20 02:40:25;;;;;;;6.50;1.30;;;;;;;-0.66;100.00;97743.53;1750405;81;21538;-81
2021/12/20 02:42:54;;;;;;;4.67;1.85;;;;;;;-0.68;100.00;97731.69;1742084;81;20994;-79
2021/12/20 02:45:30;;;;;;;2.72;1.30;;;;;;;-0.67;100.00;97741.38;1749097;81;20946;-79
2021/12/20 02:47:56;;;;;;;5.83;1.85;;;;;;;-0.68;100.00;97741.12;1738683;81;20975;-79
2021/12/20 02:50:27;;;;;;;3.02;1.22;;;;;;;-0.67;100.00;97750.81;1743491;81;20891;-79
2021/12/20 02:52:58;;;;;;;3.65;0.93;;;;;;;-0.65;100.00;97753.77;1742068;81;21130;-79
2021/12/20 02:55:28;;;;;;;4.47;1.82;;;;;;;-0.67;100.00;97752.16;1715462;82;21038;-79
2021/12/20 02:57:58;;;;;;;5.35;1.37;;;;;;;-0.65;100.00;97749.17;1742289;81;20936;-79
2021/12/20 03:00:34;;;;;;;2.92;1.00;;;;;;;-0.68;100.00;97757.28;1717845;81;20924;-80
2021/12/20 03:03:06;;;;;;;1.25;0.78;;;;;;;-0.69;100.00;97752.19;1717930;82;21120;-80
2021/12/20 03:05:38;;;;;;;0.88;0.60;;;;;;;-0.69;100.00;97754.88;1750126;81;21507;-80
2021/12/20 03:08:11;;;;;;;1.45;0.70;;;;;;;-0.68;100.00;97753.24;1744784;81;21443;-80
2021/12/20 03:10:50;;;;;;;4.10;0.98;;;;;;;-0.68;100.00;97755.14;1719636;81;20979;-81
2021/12/20 03:13:23;;;;;;;3.75;1.22;;;;;;;-0.68;100.00;97761.33;1743716;81;21029;-81
2021/12/20 03:15:50;;;;;;;3.62;0.95;;;;;;;-0.67;100.00;97758.09;1742437;81;20975;-82
2021/12/20 03:18:24;;;;;;;7.10;1.00;;;;;;;-0.68;100.00;97751.89;1747797;81;21853;-83
2021/12/20 03:20:56;;;;;;;1.98;0.90;;;;;;;-0.68;100.00;97762.67;1716837;81;21570;-83
2021/12/20 03:23:30;;;;;;;4.95;1.25;;;;;;;-0.69;100.00;97758.92;1745215;81;20959;-77
2021/12/20 03:26:04;;;;;;;1.45;0.80;;;;;;;-0.68;100.00;97759.17;1717261;82;20943;-80
2021/12/20 03:28:32;;;;;;;1.20;0.78;;;;;;;-0.67;100.00;97754.05;1747106;81;21453;-79
2021/12/20 03:31:01;;;;;;;3.22;1.47;;;;;;;-0.66;100.00;97765.08;1752170;81;21134;-78
2021/12/20 03:33:34;;;;;;;3.02;0.88;;;;;;;-0.68;100.00;97764.02;1716375;82;21517;-82
2021/12/20 03:36:01;;;;;;;4.87;1.22;;;;;;;-0.68;100.00;97765.91;1741890;81;20994;-82
2021/12/20 03:38:33;;;;;;;3.00;1.45;;;;;;;-0.69;100.00;97769.16;1744589;81;21022;-82
2021/12/20 03:41:04;;;;;;;4.10;1.55;;;;;;;-0.71;100.00;97763.79;1747327;81;20895;-82
2021/12/20 03:43:34;;;;;;;3.33;1.67;;;;;;;-0.71;100.00;97762.44;1743906;81;21807;-83
2021/12/20 03:46:09;;;;;;;1.80;1.20;;;;;;;-0.69;100.00;97772.39;1737958;81;20987;-81
2021/12/20 03:48:43;;;;;;;4.72;1.32;;;;;;;-0.69;100.00;97772.39;1753119;81;21041;-80
2021/12/20 03:51:16;;;;;;;3.45;1.55;;;;;;;-0.70;100.00;97768.09;1749563;81;20947;-76
2021/12/20 03:53:46;;;;;;;2.33;1.45;;;;;;;-0.71;100.00;97772.68;1717387;81;20935;-79
2021/12/20 03:56:16;;;;;;;2.83;1.30;;;;;;;-0.70;100.00;97771.59;1742293;81;21010;-78
2021/12/20 03:58:47;;;;;;;3.83;1.40;;;;;;;-0.70;100.00;97772.94;1753429;81;20946;-82
2021/12/20 04:01:16;;;;;;;2.67;1.25;;;;;;;-0.70;100.00;97775.63;1719357;81;20951;-82
2021/12/20 04:03:44;;;;;;;3.20;1.20;;;;;;;-0.69;100.00;97779.12;1750000;81;21474;-82
2021/12/20 04:06:17;;;;;;;1.65;0.85;;;;;;;-0.70;100.00;97781.56;1722032;81;20991;-81
2021/12/20 04:08:51;;;;;;;4.72;1.20;;;;;;;-0.71;100.00;97784.80;1742603;81;21174;-81
2021/12/20 04:11:22;;;;;;;4.30;1.30;;;;;;;-0.71;100.00;97789.39;1720178;81;20939;-81
2021/12/20 04:13:56;;;;;;;3.10;1.07;;;;;;;-0.73;100.00;97784.28;1743944;80;21021;-81
2021/12/20 04:16:21;;;;;;;2.77;1.22;;;;;;;-0.73;100.00;97795.06;1746291;81;21621;-81
2021/12/20 04:18:54;;;;;;;4.80;1.72;;;;;;;-0.74;100.00;97798.84;1718161;81;21518;-77
2021/12/20 04:21:24;;;;;;;3.27;1.25;;;;;;;-0.74;100.00;97796.16;1743619;81;21131;-78
2021/12/20 04:23:56;;;;;;;3.33;1.45;;;;;;;-0.73;100.00;97802.34;1736166;81;21616;-77
2021/12/20 04:26:27;;;;;;;3.77;1.60;;;;;;;-0.75;100.00;97800.48;1741845;81;21148;-78
2021/12/20 04:29:00;;;;;;;3.22;1.60;;;;;;;-0.78;100.00;97801.84;1719937;82;21440;-78
2021/12/20 04:31:32;;;;;;;2.87;1.10;;;;;;;-0.77;100.00;97800.77;1741328;81;21429;-79
2021/12/20 04:34:03;;;;;;;3.05;1.00;;;;;;;-0.74;100.00;97802.09;1715962;83;21176;-80
2021/12/20 04:36:36;;;;;;;5.47;1.15;;;;;;;-0.75;100.00;97799.94;1726128;82;20991;-79
2021/12/20 04:39:12;;;;;;;4.37;1.45;;;;;;;-0.76;100.00;97802.37;1724216;82;20901;-78
2021/12/20 04:41:39;;;;;;;2.65;1.57;;;;;;;-0.74;100.00;97809.62;1701445;83;21684;-77
2021/12/20 04:44:09;;;;;;;2.70;1.27;;;;;;;-0.71;100.00;97805.56;1723113;82;21609;-79
2021/12/20 04:46:38;;;;;;;2.15;1.12;;;;;;;-0.71;100.00;97805.02;1727777;82;21694;-78
2021/12/20 04:49:08;;;;;;;6.25;1.70;;;;;;;-0.70;100.00;97805.27;1723691;82;20899;-79
2021/12/20 04:51:42;;;;;;;5.78;1.70;;;;;;;-0.69;100.00;97812.27;1715385;82;20900;-77
2021/12/20 04:54:15;;;;;;;2.98;1.42;;;;;;;-0.65;100.00;97811.70;1729654;81;20967;-74
2021/12/20 04:56:50;;;;;;;3.12;1.70;;;;;;;-0.63;100.00;97816.27;1723538;81;21006;-83
2021/12/20 04:59:23;;;;;;;4.83;1.95;;;;;;;-0.62;100.00;97812.48;1747674;81;21149;-83
2021/12/20 05:01:53;;;;;;;3.20;1.47;;;;;;;-0.64;100.00;97813.31;1716445;83;20990;-78
2021/12/20 05:04:24;;;;;;;3.15;1.40;;;;;;;-0.65;100.00;97816.55;1715336;83;21038;-80
2021/12/20 05:06:52;;;;;;;2.45;1.20;;;;;;;-0.65;100.00;97823.83;1714242;83;20998;-84
2021/12/20 05:09:29;;;;;;;2.37;1.00;;;;;;;-0.67;100.00;97821.42;1713335;83;21035;-77
2021/12/20 05:12:11;;;;;;;2.70;1.12;;;;;;;-0.69;100.00;97821.70;1683395;83;20979;-79
2021/12/20 05:14:40;;;;;;;2.98;1.00;;;;;;;-0.71;100.00;97814.45;1701342;83;21452;-78
2021/12/20 05:17:15;;;;;;;6.05;1.10;;;;;;;-0.71;100.00;97826.57;1698346;83;21079;-80
2021/12/20 05:19:45;;;;;;;5.05;1.37;;;;;;;-0.71;100.00;97829.27;1702943;82;20867;-79
2021/12/20 05:22:20;;;;;;;2.52;1.30;;;;;;;-0.71;100.00;97821.19;1705125;82;20966;-77
2021/12/20 05:24:44;;;;;;;2.08;1.30;;;;;;;-0.72;100.00;97820.13;1735376;82;21534;-78
2021/12/20 05:27:12;;;;;;;3.35;1.57;;;;;;;-0.72;100.00;97829.55;1742251;80;20991;-78
2021/12/20 05:29:47;;;;;;;2.90;1.40;;;;;;;-0.72;100.00;97824.97;1749712;80;20927;-77
2021/12/20 05:32:12;;;;;;;3.75;1.42;;;;;;;-0.70;100.00;97835.46;1755418;80;20923;-78
2021/12/20 05:34:42;;;;;;;3.20;1.40;;;;;;;-0.71;100.00;97836.00;1735469;80;21056;-78
2021/12/20 05:37:20;;;;;;;3.98;1.32;;;;;;;-0.72;100.00;97842.48;1774456;79;21644;-78
2021/12/20 05:39:49;;;;;;;3.85;1.98;;;;;;;-0.72;100.00;97840.33;1771103;80;20899;-78
2021/12/20 05:42:20;;;;;;;3.98;1.60;;;;;;;-0.74;100.00;97841.95;1750974;80;20971;-78
2021/12/20 05:44:51;;;;;;;6.58;1.90;;;;;;;-0.75;100.00;97843.05;1712369;82;21011;-81
2021/12/20 05:47:24;;;;;;;8.05;2.10;;;;;;;-0.76;100.00;97844.13;1710705;82;21990;-79
2021/12/20 05:49:56;;;;;;;2.83;1.10;;;;;;;-0.75;100.00;97847.09;1719411;82;21172;-78
2021/12/20 05:52:29;;;;;;;3.58;1.37;;;;;;;-0.75;100.00;97845.74;1708369;82;20971;-77
2021/12/20 05:55:00;;;;;;;3.70;1.32;;;;;;;-0.75;100.00;97840.89;1697583;82;21791;-77
2021/12/20 05:57:32;;;;;;;8.70;2.50;;;;;;;-0.78;100.00;97846.30;1724637;80;21313;-78
2021/12/20 06:00:02;;;;;;;8.83;2.25;;;;;;;-0.76;100.00;97851.41;1687423;82;21009;-76
2021/12/20 06:02:30;;;;;;;7.42;2.20;;;;;;;-0.77;100.00;97861.39;1692053;83;21093;-80
2021/12/20 06:05:04;;;;;;;5.53;1.90;;;;;;;-0.78;100.00;97844.95;1648130;85;21084;-77
2021/12/20 06:07:44;;;;;;;3.08;1.70;;;;;;;-0.81;100.00;97853.61;1674138;83;20957;-77
2021/12/20 06:10:19;;;;;;;5.97;1.90;;;;;;;-0.82;100.00;97861.43;1691106;83;21089;-78
2021/12/20 06:12:45;;;;;;;4.30;1.77;;;;;;;-0.81;100.00;97864.92;1714997;82;21484;-77
2021/12/20 06:15:15;;;;;;;2.55;1.22;;;;;;;-0.82;100.00;97863.32;1711338;83;21490;-77
2021/12/20 06:17:48;;;;;;;3.83;1.30;;;;;;;-0.82;100.00;97864.12;1716895;83;20934;-77
2021/12/20 06:20:22;;;;;;;4.17;1.40;;;;;;;-0.82;100.00;97874.09;1686033;83;21470;-77
2021/12/20 06:22:54;;;;;;;3.75;1.70;;;;;;;-0.84;100.00;97868.99;1712257;83;20923;-78
2021/12/20 06:25:26;;;;;;;3.62;1.67;;;;;;;-0.83;100.00;97872.49;1711226;83;20980;-76
2021/12/20 06:27:58;;;;;;;6.42;1.95;;;;;;;-0.80;100.00;97869.23;1713857;83;21109;-76
2021/12/20 06:30:29;;;;;;;2.42;1.40;;;;;;;-0.80;100.00;97870.58;1708649;83;20955;-78
2021/12/20 06:32:59;;;;;;;3.55;1.70;;;;;;;-0.82;100.00;97872.20;1715272;83;20904;-75
2021/12/20 06:35:39;;;;;;;2.00;1.32;;;;;;;-0.78;100.00;97884.58;1713061;83;21499;-73
2021/12/20 06:38:07;;;;;;;7.00;1.52;;;;;;;-0.78;100.00;97874.59;1648868;86;21486;-74
2021/12/20 06:40:39;;;;;;;2.92;1.62;;;;;;;-0.81;100.00;97883.78;1630504;87;20928;-75
2021/12/20 06:43:15;;;;;;;5.47;2.00;;;;;;;-0.84;100.00;97880.31;1714294;83;28212;-81
2021/12/20 06:45:56;;;;;;;7.60;2.62;;;;;;;-0.87;100.00;97893.80;1692012;82;21026;-80
2021/12/20 06:48:18;;;;;;;8.35;3.25;;;;;;;-0.90;100.00;97888.17;1711073;83;20945;-77
2021/12/20 06:50:50;;;;;;;9.83;4.17;;;;;;;-0.92;100.00;97895.73;1711757;81;20940;-76
2021/12/20 06:53:19;;;;;;;12.68;4.10;;;;;;;-0.93;100.00;97897.63;1714450;83;21520;-76
2021/12/20 06:55:54;;;;;;;5.97;2.72;;;;;;;-0.94;100.00;97896.02;1686417;83;21466;-77
2021/12/20 06:58:23;;;;;;;8.28;3.65;;;;;;;-0.94;100.00;97893.86;1714211;83;21566;-76
2021/12/20 07:00:54;;;;;;;8.95;3.47;;;;;;;-0.94;100.00;97900.05;1713859;83;21416;-77
2021/12/20 07:03:25;;;;;;;;;;;;;;;-0.94;100.00;97900.05;1715576;83;20991;-80
2021/12/20 07:05:58;;;;;;;5.25;2.17;;;;;;;-0.95;100.00;97897.64;1692964;82;20113;-77
2021/12/20 07:08:31;;;;;;;8.13;2.80;;;;;;;-0.95;100.00;97897.09;1715188;83;21046;-80
2021/12/20 07:11:10;;;;;;;8.00;3.15;;;;;;;-0.92;100.00;97905.96;1665562;83;32877;-78
2021/12/20 07:13:40;;;;;;;10.23;4.42;;;;;;;-0.91;100.00;97908.92;1709683;83;20904;-78
2021/12/20 07:16:14;;;;;;;14.53;4.90;;;;;;;-0.90;100.00;97907.03;1716940;81;21539;-76
2021/12/20 07:18:44;;;;;;;9.60;3.20;;;;;;;-0.88;100.00;97914.28;1742735;81;21772;-83
2021/12/20 07:21:15;;;;;;;8.58;3.77;;;;;;;-0.86;100.00;97914.81;1696339;82;20987;-81
2021/12/20 07:23:45;;;;;;;11.08;3.00;;;;;;;-0.90;100.00;97918.61;1714411;82;20926;-78
2021/12/20 07:26:16;;;;;;;6.42;3.12;;;;;;;-0.89;100.00;97926.95;1735861;81;21004;-78
2021/12/20 07:28:42;;;;;;;8.65;4.08;;;;;;;-0.84;100.00;97930.16;1727178;81;21203;-75
2021/12/20 07:31:12;;;;;;;11.00;3.70;;;;;;;-0.83;100.00;97925.03;1735892;80;21367;-79
2021/12/20 07:33:48;;;;;;;5.95;2.83;;;;;;;-0.77;100.00;97925.25;1738308;81;20940;-76
2021/12/20 07:36:29;;;;;;;7.42;2.85;;;;;;;-0.72;100.00;97930.06;1716305;82;21396;-76
2021/12/20 07:38:55;;;;;;;10.25;3.30;;;;;;;-0.66;100.00;97928.13;1742297;81;21085;-77
2021/12/20 07:41:27;;;;;;;8.20;3.83;;;;;;;-0.58;100.00;97930.76;1713287;81;20947;-75
2021/12/20 07:43:57;;;;;;;7.97;3.77;;;;;;;-0.49;100.00;97936.58;1708417;81;21519;-76
2021/12/20 07:46:27;;;;;;;8.65;3.42;;;;;;;-0.38;100.00;97939.99;1706569;82;21027;-77
2021/12/20 07:49:00;;;;;;;8.50;3.80;;;;;;;-0.34;100.00;97936.45;1730095;81;21623;-78
2021/12/20 07:51:34;;;;;;;10.05;4.10;;;;;;;-0.29;100.00;97947.73;1701552;82;20996;-74
2021/12/20 07:54:12;;;;;;;7.12;3.25;;;;;;;-0.29;100.00;97945.03;1703049;82;21591;-76
2021/12/20 07:56:40;;;;;;;4.70;2.42;;;;;;;-0.32;100.00;97949.64;1729468;81;21146;-76
2021/12/20 07:59:09;;;;;;;6.15;3.30;;;;;;;-0.35;100.00;97957.75;1730075;81;20932;-76
2021/12/20 08:01:40;;;;;;;6.20;2.75;;;;;;;-0.34;100.00;97960.72;1731056;81;20897;-75
2021/12/20 08:04:08;;;;;;;6.15;2.67;;;;;;;-0.34;100.00;97959.91;1733493;81;20924;-75
2021/12/20 08:06:42;;;;;;;5.47;2.20;;;;;;;-0.36;100.00;97959.39;1744136;81;20962;-75
2021/12/20 08:09:14;;;;;;;5.30;2.15;;;;;;;-0.38;100.00;97962.91;1720364;82;21178;-76
2021/12/20 08:11:45;;;;;;;6.03;2.80;;;;;;;-0.40;100.00;97965.89;1718498;82;20924;-75
2021/12/20 08:14:17;;;;;;;5.03;2.98;;;;;;;-0.37;100.00;97963.98;1714879;82;20954;-75
2021/12/20 08:16:48;;;;;;;6.40;2.80;;;;;;;-0.33;100.00;97957.47;1722562;82;21009;-76
2021/12/20 08:19:16;;;;;;;5.25;3.27;;;;;;;-0.30;100.00;97961.50;1703213;82;20998;-76
2021/12/20 08:21:46;;;;;;;7.15;3.12;;;;;;;-0.22;100.00;97972.47;1720006;82;21499;-76
2021/12/20 08:24:18;;;;;;;6.40;3.27;;;;;;;0.02;100.00;97970.33;1707505;82;21363;-76
2021/12/20 08:26:50;;;;;;;5.17;3.10;;;;;;;0.28;100.00;97972.48;1683203;83;20883;-75
2021/12/20 08:29:18;;;;;;;;;;;;;;;0.66;100.00;97970.66;1698227;81;20950;-75
2021/12/20 08:31:56;;;;;;;8.43;3.47;;;;;;;1.06;100.00;97967.16;1703593;82;20168;-75
2021/12/20 08:34:26;;;;;;;7.75;2.92;;;;;;;1.23;100.00;97972.02;1706902;82;20954;-76
2021/12/20 08:37:00;;;;;;;5.92;3.33;;;;;;;1.17;100.00;97965.89;1731581;82;20939;-76
2021/12/20 08:39:29;;;;;;;4.12;2.62;;;;;;;1.05;100.00;97970.95;1729960;81;20883;-75
2021/12/20 08:42:21;;;;;;;8.60;4.42;;;;;;;0.93;100.00;97965.98;1737928;82;20931;-74
2021/12/20 08:44:54;;;;;;;10.60;4.45;;;;;;;0.79;99.91;97967.80;1726722;81;21636;-75
2021/12/20 08:47:22;;;;;;;13.22;5.95;;;;;;;0.61;100.00;97977.47;1703377;81;20939;-75
2021/12/20 08:49:55;;;;;;;11.28;4.60;;;;;;;0.47;100.00;97982.54;1698272;82;20939;-75
2021/12/20 08:52:29;;;;;;;10.93;4.15;;;;;;;0.37;100.00;97980.75;1721252;82;20971;-75
2021/12/20 08:55:15;;;;;;;6.25;3.00;;;;;;;0.32;100.00;97980.81;1727465;82;21751;-74
2021/12/20 08:57:47;;;;;;;8.63;3.37;;;;;;;0.19;100.00;97975.55;1745677;82;21023;-74
2021/12/20 09:00:21;;;;;;;9.98;4.10;;;;;;;0.07;100.00;97976.48;1727089;82;21168;-73
2021/12/20 09:02:57;;;;;;;8.55;3.55;;;;;;;-0.01;100.00;97981.98;1717295;82;20895;-76
2021/12/20 09:05:27;;;;;;;8.60;3.72;;;;;;;-0.07;100.00;97983.67;1725519;81;21541;-75
2021/12/20 09:08:18;;;;;;;10.58;4.53;;;;;;;-0.13;100.00;97974.02;1748582;81;21562;-75
2021/12/20 09:10:49;;;;;;;8.95;3.92;;;;;;;-0.15;100.00;97981.59;1748607;81;21427;-76
2021/12/20 09:13:20;;;;;;;9.73;4.25;;;;;;;-0.13;100.00;97976.71;1749312;81;21037;-75
2021/12/20 09:15:52;;;;;;;8.85;4.22;;;;;;;-0.12;100.00;97981.83;1733948;81;20984;-75
2021/12/20 09:18:25;;;;;;;8.38;4.22;;;;;;;-0.11;100.00;97982.08;1743579;81;21508;-74
2021/12/20 09:21:01;;;;;;;9.45;3.65;;;;;;;-0.07;100.00;97982.32;1736241;82;20944;-73
2021/12/20 09:23:29;;;;;;;10.63;4.37;;;;;;;-0.04;100.00;97971.77;1735859;81;20996;-74
2021/12/20 09:26:00;;;;;;;12.43;4.50;;;;;;;-0.01;100.00;97971.74;1729706;81;21381;-78
2021/12/20 09:28:31;;;;;;;8.15;4.12;;;;;;;0.06;100.00;97976.77;1704198;82;21469;-79
2021/12/20 09:31:02;;;;;;;12.55;4.80;;;;;;;0.13;100.00;97981.28;1707275;82;20966;-73
2021/12/20 09:33:30;;;;;;;11.15;5.28;;;;;;;0.16;100.00;97975.31;1727445;82;20955;-74
2021/12/20 09:36:05;;;;;;;10.18;4.85;;;;;;;0.20;100.00;97974.45;1703493;81;21565;-75
2021/12/20 09:38:41;;;;;;;14.73;6.90;;;;;;;0.22;100.00;97975.52;1731714;81;21073;-75
2021/12/20 09:43:37;;;;;;;10.28;4.50;;;;;;;0.27;100.00;97983.02;1733121;82;21007;-75
2021/12/20 09:46:06;;;;;;;10.38;5.05;;;;;;;0.32;100.00;97986.21;1698441;82;20905;-77
2021/12/20 09:48:35;;;;;;;5.30;2.72;;;;;;;0.45;100.00;97981.47;1738303;81;21019;-80
2021/12/20 09:51:05;;;;;;;4.83;2.60;;;;;;;0.59;100.00;97981.00;1736673;81;21584;-77
2021/12/20 09:53:35;;;;;;;4.78;2.47;;;;;;;0.69;100.00;97978.73;1707012;82;21054;-75
2021/12/20 09:56:03;;;;;;;3.35;2.02;;;;;;;0.67;100.00;97972.81;1740690;80;21149;-75
2021/12/20 09:58:38;;;;;;;4.62;2.45;;;;;;;0.64;100.00;97974.19;1709735;82;21024;-74
2021/12/20 10:01:10;;;;;;;7.50;3.35;;;;;;;0.64;100.00;97967.44;1739514;81;21023;-76
2021/12/20 10:03:39;;;;;;;8.15;3.52;;;;;;;0.69;100.00;97972.52;1749660;81;21167;-76
2021/12/20 10:06:07;;;;;;;4.95;2.50;;;;;;;0.78;100.00;97974.29;1761224;80;21596;-73
2021/12/20 10:08:49;;;;;;;4.60;2.45;;;;;;;0.85;98.78;97967.98;1743860;81;21498;-78
2021/12/20 10:11:19;;;;;;;3.65;2.12;;;;;;;0.85;98.64;97967.18;1726213;82;21859;-79
2021/12/20 10:13:50;;;;;;;4.40;1.92;;;;;;;0.83;97.43;97976.13;1738043;82;20983;-79
2021/12/20 10:16:24;;;;;;;5.58;2.20;;;;;;;0.79;98.41;97971.84;1743965;82;21183;-75
2021/12/20 10:19:00;;;;;;;4.15;2.00;;;;;;;0.86;97.98;97972.84;1704116;82;21034;-76
2021/12/20 10:21:45;;;;;;;3.45;1.82;;;;;;;0.94;97.21;97981.10;1728697;82;21042;-75
2021/12/20 10:24:09;;;;;;;6.65;1.98;;;;;;;0.96;95.93;97975.41;1716900;82;21083;-75
2021/12/20 10:26:40;;;;;;;3.90;1.95;;;;;;;0.85;94.87;97973.94;1708855;82;20931;-75
2021/12/20 10:29:21;;;;;;;3.65;2.45;;;;;;;0.66;94.84;97976.60;1733422;82;21839;-78
2021/12/20 10:31:54;;;;;;;7.33;3.60;;;;;;;0.52;95.28;97975.18;1718478;82;21070;-77
2021/12/20 10:34:37;;;;;;;4.55;2.50;;;;;;;0.42;96.71;97982.05;1736898;82;21106;-79
2021/12/20 10:37:06;;;;;;;6.33;3.45;;;;;;;0.36;96.87;97975.64;1732078;82;21042;-78
2021/12/20 10:39:45;;;;;;;5.67;2.77;;;;;;;0.29;97.57;97978.69;1722756;82;21533;-80
2021/12/20 10:42:28;;;;;;;8.40;3.25;;;;;;;0.26;97.09;97984.11;1734459;82;21132;-78
2021/12/20 10:45:15;;;;;;;6.00;2.77;;;;;;;0.23;97.05;97975.78;1724857;82;21082;-77
2021/12/20 10:47:45;;;;;;;6.17;2.92;;;;;;;0.23;96.73;97974.44;1702463;82;20964;-76
2021/12/20 10:50:34;;;;;;;5.85;3.20;;;;;;;0.27;97.13;97971.42;1709460;81;20920;-74
2021/12/20 10:53:23;;;;;;;7.30;3.00;;;;;;;0.40;98.27;97968.03;1736109;81;21549;-73
2021/12/20 10:55:55;;;;;;;5.33;2.40;;;;;;;0.55;98.04;97969.20;1717705;82;21128;-74
2021/12/20 10:58:39;;;;;;;6.17;3.12;;;;;;;0.71;96.64;97970.34;1753760;81;20880;-74
2021/12/20 11:03:58;;;;;;;5.03;2.12;;;;;;;1.22;96.81;97971.77;1753138;79;21014;-73
2021/12/20 11:06:58;;;;;;;4.62;2.72;;;;;;;1.32;93.34;97968.91;1752562;81;20991;-74
2021/12/20 11:09:23;;;;;;;2.92;1.82;;;;;;;1.23;91.19;97970.67;1751434;81;23226;-74
2021/12/20 11:12:01;;;;;;;7.95;2.35;;;;;;;1.07;91.84;97977.42;1753391;81;21533;-75
2021/12/20 11:14:36;;;;;;;3.55;2.10;;;;;;;0.92;90.72;97975.73;1752671;80;21434;-74
2021/12/20 11:17:08;;;;;;;4.53;2.20;;;;;;;0.73;89.65;97977.60;1694620;82;20955;-74
2021/12/20 11:19:51;;;;;;;4.62;2.62;;;;;;;0.61;91.05;97985.58;1753734;81;20900;-74
2021/12/20 11:22:29;;;;;;;2.58;1.75;;;;;;;0.57;92.55;97987.27;1734650;81;20995;-73
2021/12/20 11:25:15;;;;;;;5.15;1.90;;;;;;;0.57;91.31;97979.72;1734824;81;21403;-74
2021/12/20 11:28:04;;;;;;;4.90;2.50;;;;;;;0.59;92.30;97986.41;1753408;81;20860;-74
2021/12/20 11:30:26;;;;;;;7.47;3.50;;;;;;;0.74;91.71;97984.06;1743728;81;20983;-74
2021/12/20 11:32:53;;;;;;;4.97;2.60;;;;;;;0.93;92.54;97980.84;1748722;80;21501;-74
2021/12/20 11:35:27;;;;;;;9.18;4.47;;;;;;;1.01;90.42;97988.05;1753437;79;21164;-74
2021/12/20 11:37:59;;;;;;;4.47;2.42;;;;;;;0.90;90.34;97992.78;1753317;81;21443;-73
2021/12/20 11:40:31;;;;;;;6.78;3.10;;;;;;;0.79;91.90;97997.51;1753380;81;21590;-74
2021/12/20 11:43:04;;;;;;;7.12;3.17;;;;;;;0.69;91.62;97994.94;1749645;81;21565;-74
2021/12/20 11:45:36;;;;;;;4.78;2.55;;;;;;;0.56;91.70;97985.66;1750748;81;21560;-73
2021/12/20 11:48:14;;;;;;;7.58;3.33;;;;;;;0.49;91.88;98007.35;1753612;80;21584;-73
2021/12/20 11:50:44;;;;;;;5.00;2.80;;;;;;;0.43;93.73;98004.45;1753166;80;20872;-74
2021/12/20 11:53:19;;;;;;;5.42;2.50;;;;;;;0.37;93.39;97998.30;1753777;81;21015;-74
2021/12/20 11:55:56;;;;;;;3.22;2.10;;;;;;;0.30;93.30;97995.14;1753501;81;21090;-73
2021/12/20 11:58:33;;;;;;;3.92;1.77;;;;;;;0.24;93.98;97995.73;1737144;81;20935;-74
2021/12/20 12:01:18;;;;;;;4.62;1.92;;;;;;;0.20;94.41;97997.40;1743849;81;22088;-74
2021/12/20 12:03:58;;;;;;;3.40;2.20;;;;;;;0.17;94.62;98007.41;1753464;81;21038;-74
2021/12/20 12:06:33;;;;;;;6.78;2.05;;;;;;;0.16;95.38;98010.40;1735126;81;21015;-75
2021/12/20 12:09:02;;;;;;;5.03;2.50;;;;;;;0.17;95.81;98004.72;1734355;81;21034;-74